createdAt,value
2017-11-14T00:00:26.700Z,5.80
2017-11-14T00:02:54.248Z,5.70
2017-11-14T00:05:22.552Z,5.70
2017-11-14T00:07:50.109Z,5.70
2017-11-14T00:10:17.638Z,5.70
2017-11-14T00:12:45.950Z,5.70
2017-11-14T00:15:13.475Z,5.80
2017-11-14T00:17:41.028Z,5.60
2017-11-14T00:20:09.334Z,5.70
2017-11-14T00:22:36.882Z,5.70
2017-11-14T00:25:04.803Z,5.60
2017-11-14T00:27:32.731Z,5.60
2017-11-14T00:30:00.268Z,5.50
2017-11-14T00:32:27.818Z,5.50
2017-11-14T00:34:56.126Z,5.40
2017-11-14T00:37:23.663Z,5.50
2017-11-14T00:39:51.184Z,5.50
2017-11-14T00:42:18.706Z,5.60
2017-11-14T00:44:46.308Z,5.60
2017-11-14T00:47:13.834Z,5.60
2017-11-14T00:49:41.376Z,5.50
2017-11-14T00:52:08.900Z,5.40
2017-11-14T00:54:36.852Z,5.30
2017-11-14T00:57:04.426Z,5.40
2017-11-14T00:59:31.988Z,5.40
2017-11-14T01:01:59.544Z,5.40
2017-11-14T01:04:27.863Z,5.40
2017-11-14T01:06:56.146Z,5.40
2017-11-14T01:09:23.707Z,5.50
2017-11-14T01:11:51.241Z,5.50
2017-11-14T01:14:18.791Z,5.20
2017-11-14T01:16:46.731Z,5.20
2017-11-14T01:19:14.270Z,5.40
2017-11-14T01:21:41.799Z,5.40
2017-11-14T01:24:09.353Z,5.40
2017-11-14T01:26:36.881Z,5.40
2017-11-14T01:29:04.434Z,5.50
2017-11-14T01:31:31.966Z,5.50
2017-11-14T01:33:59.920Z,5.60
2017-11-14T01:36:28.200Z,5.60
2017-11-14T01:38:55.738Z,5.60
2017-11-14T01:41:24.228Z,5.70
2017-11-14T01:43:52.818Z,5.70
2017-11-14T01:46:21.108Z,5.80
2017-11-14T01:48:48.630Z,5.80
2017-11-14T01:51:16.222Z,5.80
2017-11-14T01:53:44.512Z,5.80
2017-11-14T01:56:12.070Z,5.80
2017-11-14T01:58:39.599Z,5.80
2017-11-14T02:01:07.257Z,5.90
2017-11-14T02:03:34.787Z,5.90
2017-11-14T02:06:03.110Z,5.90
2017-11-14T02:08:31.387Z,6.00
2017-11-14T02:10:58.977Z,6.00
2017-11-14T02:13:26.503Z,6.00
2017-11-14T02:15:54.052Z,6.00
2017-11-14T02:18:22.808Z,6.10
2017-11-14T02:20:50.354Z,6.10
2017-11-14T02:23:17.962Z,6.10
2017-11-14T02:25:45.566Z,6.10
2017-11-14T02:28:13.088Z,6.20
2017-11-14T02:30:40.666Z,6.20
2017-11-14T02:33:08.962Z,6.20
2017-11-14T03:19:16.264Z,6.20
2017-11-14T03:21:43.824Z,6.20
2017-11-14T03:24:11.350Z,6.20
2017-11-14T03:26:38.873Z,6.20
2017-11-14T03:29:09.369Z,6.20
2017-11-14T03:31:38.393Z,6.30
2017-11-14T03:34:05.933Z,6.30
2017-11-14T03:36:33.450Z,6.30
2017-11-14T03:39:00.983Z,6.30
2017-11-14T03:41:29.276Z,6.30
2017-11-14T03:43:57.312Z,6.20
2017-11-14T03:46:24.840Z,6.20
2017-11-14T03:48:53.220Z,6.20
2017-11-14T03:51:20.766Z,6.10
2017-11-14T03:53:49.911Z,5.80
2017-11-14T03:56:17.663Z,5.70
2017-11-14T03:58:45.217Z,5.50
2017-11-14T04:01:13.136Z,5.40
2017-11-14T04:03:41.622Z,5.40
2017-11-14T04:06:09.143Z,5.40
2017-11-14T04:08:36.680Z,5.40
2017-11-14T04:11:04.208Z,5.50
2017-11-14T04:13:37.087Z,5.50
2017-11-14T04:16:04.616Z,5.60
2017-11-14T04:18:32.156Z,5.40
2017-11-14T04:20:59.769Z,5.40
2017-11-14T04:23:28.059Z,4.90
2017-11-14T04:25:55.598Z,4.90
2017-11-14T04:28:23.125Z,5.00
2017-11-14T04:30:50.670Z,5.20
2017-11-14T04:33:19.759Z,5.30
2017-11-14T04:35:47.695Z,5.30
2017-11-14T04:38:15.220Z,5.40
2017-11-14T04:40:44.578Z,5.50
2017-11-14T04:43:12.112Z,5.50
2017-11-14T04:45:39.676Z,5.40
2017-11-14T04:48:07.190Z,8.50
2017-11-14T04:50:34.736Z,5.20
2017-11-14T04:53:02.257Z,5.10
2017-11-14T04:55:29.796Z,5.10
2017-11-14T04:57:57.320Z,5.10
2017-11-14T05:00:24.881Z,5.00
2017-11-14T05:02:53.249Z,5.20
2017-11-14T05:05:20.799Z,5.30
2017-11-14T05:07:49.093Z,5.30
2017-11-14T05:10:17.396Z,5.30
2017-11-14T05:12:44.970Z,5.30
2017-11-14T05:15:12.839Z,5.40
2017-11-14T05:17:40.385Z,5.60
2017-11-14T05:20:07.913Z,5.60
2017-11-14T05:22:35.452Z,5.60
2017-11-14T05:25:02.973Z,5.70
2017-11-14T05:27:30.548Z,5.80
2017-11-14T05:29:58.069Z,5.80
2017-11-14T05:32:25.603Z,5.80
2017-11-14T05:34:53.891Z,5.90
2017-11-14T05:37:22.195Z,5.90
2017-11-14T05:39:49.710Z,5.90
2017-11-14T05:42:17.628Z,6.00
2017-11-14T05:44:45.171Z,5.90
2017-11-14T05:47:12.707Z,5.90
2017-11-14T05:49:41.027Z,5.90
2017-11-14T05:52:08.556Z,6.00
2017-11-14T05:54:36.168Z,6.00
2017-11-14T05:57:03.680Z,6.00
2017-11-14T05:59:31.223Z,6.00
2017-11-14T06:01:59.505Z,5.70
2017-11-14T06:04:27.816Z,5.70
2017-11-14T06:06:55.340Z,5.60
2017-11-14T06:09:22.891Z,5.60
2017-11-14T06:11:51.174Z,5.70
2017-11-14T06:14:18.727Z,5.70
2017-11-14T06:16:46.266Z,5.80
2017-11-14T06:19:13.807Z,5.70
2017-11-14T06:21:41.335Z,5.80
2017-11-14T06:24:08.876Z,5.90
2017-11-14T06:26:36.413Z,5.90
2017-11-14T06:29:04.706Z,5.70
2017-11-14T06:31:33.091Z,5.70
2017-11-14T06:34:01.731Z,5.50
2017-11-14T06:36:30.045Z,5.30
2017-11-14T06:38:57.567Z,5.10
2017-11-14T06:41:25.106Z,5.20
2017-11-14T06:43:52.626Z,5.40
2017-11-14T06:46:20.176Z,5.50
2017-11-14T06:48:47.705Z,5.50
2017-11-14T06:51:15.254Z,5.60
2017-11-14T06:53:42.778Z,5.70
2017-11-14T06:56:11.081Z,5.60
2017-11-14T06:58:38.620Z,5.60
2017-11-14T07:01:06.163Z,5.70
2017-11-14T07:03:33.674Z,5.70
2017-11-14T07:06:02.057Z,5.70
2017-11-14T07:08:29.595Z,5.80
2017-11-14T07:10:57.134Z,5.70
2017-11-14T07:13:24.654Z,5.80
2017-11-14T07:15:52.975Z,5.70
2017-11-14T07:18:21.255Z,5.80
2017-11-14T07:20:48.804Z,5.80
2017-11-14T07:23:16.323Z,5.90
2017-11-14T07:25:43.843Z,5.90
2017-11-14T07:28:11.497Z,5.90
2017-11-14T07:30:39.408Z,5.90
2017-11-14T07:33:06.938Z,5.90
2017-11-14T07:35:34.456Z,5.90
2017-11-14T07:38:01.995Z,6.00
2017-11-14T07:40:29.506Z,6.00
2017-11-14T07:42:57.052Z,5.90
2017-11-14T07:45:25.340Z,5.90
2017-11-14T07:47:52.892Z,5.90
2017-11-14T07:50:20.419Z,5.90
2017-11-14T07:52:47.976Z,6.10
2017-11-14T07:55:15.902Z,6.20
2017-11-14T07:57:44.211Z,6.70
2017-11-14T08:00:12.618Z,9.00
2017-11-14T08:02:41.782Z,10.50
2017-11-14T08:05:09.772Z,11.30
2017-11-14T08:07:37.741Z,11.60
2017-11-14T08:10:06.155Z,12.40
2017-11-14T08:12:34.455Z,13.00
2017-11-14T08:15:02.775Z,13.50
2017-11-14T08:17:31.064Z,13.40
2017-11-14T08:19:59.385Z,12.20
2017-11-14T08:22:27.691Z,11.20
2017-11-14T08:24:56.016Z,10.50
2017-11-14T08:27:25.840Z,9.90
2017-11-14T08:29:54.151Z,9.20
2017-11-14T08:32:22.543Z,8.60
2017-11-14T08:34:50.842Z,8.20
2017-11-14T08:37:19.128Z,7.90
2017-11-14T08:39:47.438Z,7.70
2017-11-14T08:42:15.886Z,7.60
2017-11-14T08:44:44.202Z,7.30
2017-11-14T08:47:12.483Z,7.10
2017-11-14T08:49:40.787Z,7.20
2017-11-14T08:52:09.067Z,7.20
2017-11-14T08:54:36.599Z,7.10
2017-11-14T08:57:04.616Z,6.80
2017-11-14T08:59:32.908Z,6.60
2017-11-14T09:02:01.212Z,6.60
2017-11-14T09:04:29.497Z,6.70
2017-11-14T09:06:57.049Z,6.70
2017-11-14T09:09:24.972Z,6.70
2017-11-14T09:11:53.280Z,6.70
2017-11-14T09:14:21.588Z,6.70
2017-11-14T09:16:49.907Z,6.70
2017-11-14T09:19:18.199Z,6.40
2017-11-14T09:21:46.592Z,6.40
2017-11-14T09:24:14.880Z,6.20
2017-11-14T09:26:43.932Z,6.10
2017-11-14T09:29:11.590Z,5.90
2017-11-14T09:31:39.946Z,6.10
2017-11-14T09:34:08.371Z,6.30
2017-11-14T09:36:36.688Z,6.30
2017-11-14T09:39:04.980Z,6.50
2017-11-14T09:41:33.283Z,6.60
2017-11-14T09:44:01.813Z,6.80
2017-11-14T09:46:30.130Z,6.80
2017-11-14T09:48:58.532Z,6.70
2017-11-14T09:51:26.850Z,6.70
2017-11-14T09:53:55.136Z,6.70
2017-11-14T09:56:23.602Z,6.60
2017-11-14T09:58:52.637Z,6.70
2017-11-14T10:01:20.217Z,6.70
2017-11-14T10:03:48.499Z,6.70
2017-11-14T10:06:16.808Z,6.80
2017-11-14T10:08:45.115Z,6.80
2017-11-14T10:11:12.686Z,6.90
2017-11-14T10:13:40.595Z,7.00
2017-11-14T10:16:09.411Z,7.00
2017-11-14T10:18:36.976Z,7.00
2017-11-14T10:21:04.495Z,6.90
2017-11-14T10:23:32.440Z,7.00
2017-11-14T10:26:00.736Z,6.90
2017-11-14T10:28:29.040Z,6.90
2017-11-14T10:30:57.325Z,6.90
2017-11-14T10:33:24.862Z,7.00
2017-11-14T10:35:52.780Z,7.10
2017-11-14T10:38:21.092Z,7.00
2017-11-14T10:40:49.786Z,7.10
2017-11-14T10:43:17.718Z,7.20
2017-11-14T10:45:46.196Z,7.30
2017-11-14T10:48:14.719Z,7.50
2017-11-14T10:50:43.019Z,7.50
2017-11-14T10:53:11.318Z,7.50
2017-11-14T10:55:39.616Z,7.50
2017-11-14T10:58:07.931Z,7.30
2017-11-14T11:00:39.150Z,7.40
2017-11-14T11:03:07.463Z,7.30
2017-11-14T11:05:35.743Z,7.30
2017-11-14T11:08:04.101Z,7.40
2017-11-14T11:10:32.391Z,7.40
2017-11-14T11:13:00.700Z,7.40
2017-11-14T11:15:29.047Z,7.40
2017-11-14T11:17:57.366Z,7.40
2017-11-14T11:20:26.442Z,7.50
2017-11-14T11:22:54.028Z,7.50
2017-11-14T11:25:22.322Z,7.50
2017-11-14T11:27:50.627Z,7.60
2017-11-14T11:30:18.539Z,7.60
2017-11-14T11:32:46.055Z,7.70
2017-11-14T11:35:14.366Z,7.60
2017-11-14T11:37:42.646Z,7.60
2017-11-14T11:40:11.196Z,7.70
2017-11-14T11:42:39.484Z,7.50
2017-11-14T11:45:07.812Z,7.40
2017-11-14T11:47:36.103Z,7.20
2017-11-14T11:50:04.417Z,7.20
2017-11-14T11:52:32.785Z,7.40
2017-11-14T11:55:01.110Z,7.50
2017-11-14T11:57:29.402Z,7.50
2017-11-14T11:59:56.935Z,7.50
2017-11-14T12:02:24.863Z,7.40
2017-11-14T12:04:53.172Z,7.70
2017-11-14T12:07:21.472Z,7.90
2017-11-14T12:09:49.772Z,8.00
2017-11-14T12:12:18.060Z,8.30
2017-11-14T12:14:46.374Z,8.20
2017-11-14T12:17:14.665Z,8.30
2017-11-14T12:19:42.943Z,8.30
2017-11-14T12:22:10.489Z,8.20
2017-11-14T12:24:38.776Z,8.30
2017-11-14T12:27:06.712Z,8.20
2017-11-14T12:29:35.016Z,8.10
2017-11-14T12:32:02.559Z,8.00
2017-11-14T12:34:30.562Z,7.90
2017-11-14T12:36:58.879Z,7.90
2017-11-14T12:39:27.163Z,8.00
2017-11-14T12:41:55.678Z,8.00
2017-11-14T12:44:23.967Z,8.20
2017-11-14T12:46:52.285Z,8.30
2017-11-14T12:49:20.612Z,8.40
2017-11-14T12:51:48.944Z,8.20
2017-11-14T12:54:18.023Z,8.40
2017-11-14T12:56:45.607Z,8.40
2017-11-14T12:59:13.891Z,8.20
2017-11-14T13:01:42.198Z,8.30
2017-11-14T13:04:10.480Z,8.40
2017-11-14T13:06:38.790Z,8.40
2017-11-14T13:09:07.096Z,8.60
2017-11-14T13:11:35.408Z,8.80
2017-11-14T13:14:03.715Z,9.10
2017-11-14T13:16:32.045Z,9.30
2017-11-14T13:19:00.323Z,9.40
2017-11-14T13:21:28.660Z,9.60
2017-11-14T13:23:56.946Z,9.60
2017-11-14T13:26:24.478Z,9.70
2017-11-14T13:28:52.397Z,9.90
2017-11-14T13:31:20.739Z,10.10
2017-11-14T13:33:49.036Z,10.10
2017-11-14T13:36:17.355Z,10.20
2017-11-14T13:38:45.657Z,10.30
2017-11-14T13:41:13.199Z,10.40
2017-11-14T13:43:44.455Z,10.40
2017-11-14T13:46:12.382Z,10.30
2017-11-14T13:48:40.763Z,10.30
2017-11-14T13:51:08.683Z,10.00
2017-11-14T13:53:36.992Z,9.90
2017-11-14T13:56:05.374Z,9.70
2017-11-14T13:58:33.687Z,9.70
2017-11-14T14:01:01.457Z,9.60
2017-11-14T14:03:29.011Z,9.50
2017-11-14T14:05:57.291Z,9.40
2017-11-14T14:08:25.862Z,9.40
2017-11-14T14:10:54.155Z,9.30
2017-11-14T14:13:22.466Z,9.30
2017-11-14T14:15:50.752Z,9.30
2017-11-14T14:18:19.058Z,9.50
2017-11-14T14:20:47.348Z,10.20
2017-11-14T14:23:15.650Z,11.10
2017-11-14T14:25:43.939Z,12.00
2017-11-14T14:28:12.258Z,12.90
2017-11-14T14:30:39.889Z,13.70
2017-11-14T14:33:07.841Z,14.20
2017-11-14T14:35:36.130Z,14.50
2017-11-14T14:38:04.460Z,14.90
2017-11-14T14:40:32.753Z,15.10
2017-11-14T14:43:01.049Z,14.90
2017-11-14T14:45:29.355Z,14.90
2017-11-14T14:47:57.663Z,14.70
2017-11-14T14:50:25.959Z,14.50
2017-11-14T14:52:54.259Z,14.30
2017-11-14T14:55:22.569Z,14.10
2017-11-14T14:57:50.860Z,13.80
2017-11-14T15:00:19.159Z,13.40
2017-11-14T15:02:47.447Z,12.90
2017-11-14T15:05:15.762Z,12.70
2017-11-14T15:07:45.076Z,12.50
2017-11-14T15:10:12.615Z,9.30
2017-11-14T15:12:40.915Z,12.40
2017-11-14T15:15:09.231Z,12.50
2017-11-14T15:17:37.555Z,12.50
2017-11-14T15:20:05.864Z,12.30
2017-11-14T15:22:34.151Z,11.90
2017-11-14T15:25:02.448Z,13.50
2017-11-14T15:27:30.738Z,10.90
2017-11-14T15:29:59.039Z,10.40
2017-11-14T15:32:27.323Z,10.00
2017-11-14T15:34:55.642Z,9.70
2017-11-14T15:37:23.948Z,9.50
2017-11-14T15:39:52.284Z,9.20
2017-11-14T15:42:20.569Z,9.00
2017-11-14T15:44:48.088Z,8.80
2017-11-14T15:47:16.022Z,8.70
2017-11-14T15:49:44.320Z,8.50
2017-11-14T15:52:12.620Z,8.40
2017-11-14T15:54:40.916Z,8.20
2017-11-14T15:57:08.460Z,8.10
2017-11-14T15:59:36.377Z,7.90
2017-11-14T16:02:04.686Z,7.80
2017-11-14T16:04:32.960Z,7.70
2017-11-14T16:07:00.896Z,7.60
2017-11-14T16:09:28.427Z,7.40
2017-11-14T16:11:56.738Z,7.30
2017-11-14T16:14:25.033Z,7.10
2017-11-14T16:16:53.577Z,7.00
2017-11-14T16:19:21.539Z,6.90
2017-11-14T16:21:49.863Z,6.80
2017-11-14T16:24:18.190Z,6.70
2017-11-14T16:26:46.654Z,6.70
2017-11-14T16:29:14.960Z,6.60
2017-11-14T16:31:44.016Z,9.90
2017-11-14T16:34:12.306Z,6.40
2017-11-14T16:36:41.968Z,6.40
2017-11-14T16:39:10.489Z,6.30
2017-11-14T16:41:38.803Z,6.20
2017-11-14T16:44:06.956Z,6.10
2017-11-14T16:46:34.543Z,6.10
2017-11-14T16:49:02.892Z,6.00
2017-11-14T16:51:31.952Z,6.00
2017-11-14T16:53:59.471Z,6.00
2017-11-14T16:56:27.795Z,5.90
2017-11-14T16:58:57.450Z,5.90
2017-11-14T17:01:24.987Z,5.80
2017-11-14T17:03:54.508Z,5.80
2017-11-14T17:06:24.000Z,5.70
2017-11-14T17:08:52.296Z,7.00
2017-11-14T17:11:20.683Z,7.90
2017-11-14T17:13:49.223Z,7.90
2017-11-14T17:16:18.383Z,7.60
2017-11-14T17:18:47.208Z,7.20
2017-11-14T17:21:15.519Z,6.90
2017-11-14T17:23:43.825Z,6.60
2017-11-14T17:26:12.147Z,6.40
2017-11-14T17:28:40.448Z,6.20
2017-11-14T17:31:08.773Z,6.10
2017-11-14T17:33:37.064Z,5.90
2017-11-14T17:36:05.414Z,5.80
2017-11-14T17:38:34.555Z,5.70
2017-11-14T17:41:02.086Z,5.60
2017-11-14T17:43:30.411Z,5.60
2017-11-14T17:45:58.726Z,5.50
2017-11-14T17:48:27.037Z,5.50
2017-11-14T17:50:55.346Z,5.40
2017-11-14T17:53:23.634Z,5.30
2017-11-14T17:55:52.883Z,5.30
2017-11-14T17:58:21.139Z,5.20
2017-11-14T18:00:49.612Z,5.10
2017-11-14T18:03:17.935Z,5.10
2017-11-14T18:05:46.783Z,5.10
2017-11-14T18:08:15.116Z,5.10
2017-11-14T18:10:43.420Z,5.10
2017-11-14T18:13:11.792Z,5.10
2017-11-14T18:15:40.896Z,5.10
2017-11-14T18:18:08.890Z,5.00
2017-11-14T18:20:36.827Z,5.00
2017-11-14T18:23:05.174Z,4.90
2017-11-14T18:25:34.013Z,4.90
2017-11-14T18:28:01.950Z,4.90
2017-11-14T18:30:30.243Z,4.80
2017-11-14T18:32:58.573Z,4.80
2017-11-14T18:35:26.876Z,4.80
2017-11-14T18:37:55.194Z,4.80
2017-11-14T18:40:23.484Z,4.80
2017-11-14T18:42:51.787Z,4.70
2017-11-14T18:45:20.111Z,4.70
2017-11-14T18:47:48.402Z,4.70
2017-11-14T18:50:16.720Z,4.60
2017-11-14T18:52:45.019Z,4.60
2017-11-14T18:55:13.324Z,4.60
2017-11-14T18:57:41.819Z,4.50
2017-11-14T19:00:10.944Z,4.50
2017-11-14T19:02:38.468Z,4.50
2017-11-14T19:05:06.990Z,4.50
2017-11-14T19:07:34.917Z,4.50
2017-11-14T19:10:02.475Z,4.40
2017-11-14T19:12:30.489Z,4.40
2017-11-14T19:14:58.797Z,4.30
2017-11-14T19:17:27.124Z,4.30
2017-11-14T19:19:57.090Z,4.30
2017-11-14T19:22:25.011Z,4.20
2017-11-14T19:24:53.331Z,4.30
2017-11-14T19:27:22.734Z,4.20
2017-11-14T19:29:51.073Z,4.20
2017-11-14T19:32:18.606Z,4.20
2017-11-14T19:34:46.636Z,4.20
2017-11-14T19:37:14.958Z,4.20
2017-11-14T19:39:44.929Z,4.20
2017-11-14T19:42:13.025Z,4.10
2017-11-14T19:44:42.850Z,4.10
2017-11-14T19:47:11.178Z,4.10
2017-11-14T19:49:39.466Z,4.10
2017-11-14T19:52:07.774Z,4.10
2017-11-14T19:54:38.244Z,4.10
2017-11-14T19:57:05.791Z,4.10
2017-11-14T19:59:34.122Z,4.00
2017-11-14T20:02:04.186Z,4.10
2017-11-14T20:04:33.408Z,4.00
2017-11-14T20:07:01.965Z,4.00
2017-11-14T20:09:30.328Z,4.00
2017-11-14T20:11:58.639Z,4.00
2017-11-14T20:14:27.181Z,4.00
2017-11-14T20:16:55.133Z,4.00
2017-11-14T20:19:23.430Z,3.90
2017-11-14T20:21:51.833Z,3.90
2017-11-14T20:24:20.123Z,3.90
2017-11-14T20:26:48.435Z,3.90
2017-11-14T20:29:16.729Z,3.80
2017-11-14T20:31:45.212Z,3.80
2017-11-14T20:34:14.755Z,3.80
2017-11-14T20:36:43.799Z,3.80
2017-11-14T20:39:11.394Z,3.80
2017-11-14T20:41:39.782Z,3.70
2017-11-14T20:44:08.208Z,3.70
2017-11-14T20:46:36.507Z,3.70
2017-11-14T20:49:05.503Z,3.70
2017-11-14T20:51:33.795Z,3.70
2017-11-14T20:54:01.349Z,3.70
2017-11-14T20:56:29.660Z,3.70
2017-11-14T20:58:58.813Z,3.70
2017-11-14T21:01:27.114Z,3.70
2017-11-14T21:03:54.664Z,3.70
2017-11-14T21:06:22.966Z,3.70
2017-11-14T21:08:52.209Z,3.70
2017-11-14T21:11:19.742Z,3.60
2017-11-14T21:13:48.061Z,3.60
2017-11-14T21:16:16.807Z,3.60
2017-11-14T21:18:45.186Z,3.70
2017-11-14T21:21:13.664Z,3.60
2017-11-14T21:23:41.830Z,3.60
2017-11-14T21:26:09.888Z,3.60
2017-11-14T21:28:37.882Z,3.50
2017-11-14T21:31:06.205Z,3.50
2017-11-14T21:33:34.546Z,3.50
2017-11-14T21:36:03.224Z,3.50
2017-11-14T21:38:31.167Z,3.60
2017-11-14T21:40:58.690Z,3.60
2017-11-14T21:43:27.290Z,3.60
2017-11-14T21:45:56.271Z,3.60
2017-11-14T21:48:24.610Z,3.50
2017-11-14T21:50:52.987Z,3.40
2017-11-14T21:53:21.278Z,3.40
2017-11-14T21:55:49.592Z,3.40
2017-11-14T21:58:17.894Z,3.40
2017-11-14T22:00:46.210Z,3.50
2017-11-14T22:03:14.508Z,3.50
2017-11-14T22:05:42.059Z,3.50
2017-11-14T22:08:10.492Z,3.50
2017-11-14T22:10:38.453Z,3.50
2017-11-14T22:13:06.748Z,3.50
2017-11-14T22:15:35.068Z,3.50
2017-11-14T22:18:04.092Z,3.40
2017-11-14T22:20:31.643Z,3.40
2017-11-14T22:22:59.944Z,3.30
2017-11-14T22:25:28.259Z,3.40
2017-11-14T22:27:56.556Z,3.40
2017-11-14T22:30:24.873Z,3.40
2017-11-14T22:32:53.167Z,3.30
2017-11-14T22:35:20.743Z,3.30
2017-11-14T22:37:48.670Z,3.30
2017-11-14T22:40:16.986Z,3.40
2017-11-14T22:42:45.289Z,3.40
2017-11-14T22:45:29.438Z,3.30
2017-11-14T22:47:58.078Z,3.30
2017-11-14T22:50:26.384Z,3.30
2017-11-14T22:52:55.145Z,3.30
2017-11-14T22:55:23.460Z,3.30
2017-11-14T22:57:51.790Z,3.30
2017-11-14T23:00:26.002Z,3.30
2017-11-14T23:02:54.254Z,3.30
2017-11-14T23:05:22.548Z,3.40
2017-11-14T23:07:50.884Z,3.30
2017-11-14T23:12:48.286Z,3.40
2017-11-14T23:15:15.819Z,3.40
2017-11-14T23:17:44.156Z,3.40
2017-11-14T23:20:12.450Z,3.40
2017-11-14T23:22:40.784Z,3.40
2017-11-14T23:25:09.118Z,3.40
2017-11-14T23:27:37.482Z,3.40
2017-11-14T23:30:06.211Z,3.40
2017-11-14T23:32:34.169Z,3.40
2017-11-14T23:35:02.464Z,3.40
2017-11-14T23:37:30.785Z,3.40
2017-11-14T23:39:59.087Z,3.40
2017-11-14T23:42:27.418Z,3.30
2017-11-14T23:44:56.471Z,3.30
2017-11-14T23:47:24.223Z,3.30
2017-11-14T23:49:53.275Z,3.40
2017-11-14T23:52:20.806Z,3.40
2017-11-14T23:54:48.963Z,3.40
2017-11-14T23:57:17.267Z,3.40
2017-11-14T23:59:45.644Z,3.50
